Time;durP1;ratioP1;P1;durP2;ratioP2;P2;SDS_P1;SDS_P2;PMS_P1;PMS_P2;Temp;Humidity;BMP_temperature;BMP_pressure;BME280_temperature;BME280_humidity;BME280_pressure;Samples;Min_cycle;Max_cycle;Signal;HPM_P1;HPM_P2
2022/05/03 00:04:37;;;;;;;21.60;7.28;;;;;;;;;;10505401;28;20445;-67
2022/05/03 00:09:46;;;;;;;19.17;8.35;;;;;;;;;;10491664;28;20064;-67
2022/05/03 00:14:53;;;;;;;13.75;7.75;;;;;;;;;;10518176;28;20098;-67
2022/05/03 00:19:55;;;;;;;14.27;7.80;;;;;;;;;;10506547;28;20041;-66
2022/05/03 00:25:00;;;;;;;17.92;7.38;;;;;;;;;;10514942;28;20047;-67
2022/05/03 00:30:05;;;;;;;11.23;6.85;;;;;;;;;;10493969;28;20048;-66
2022/05/03 00:35:08;;;;;;;;;;;;;;;;;;10513343;28;20324;-66
2022/05/03 00:40:12;;;;;;;13.52;6.93;;;;;;;;;;10488737;28;19923;-66
2022/05/03 00:45:22;;;;;;;10.00;6.93;;;;;;;;;;10512809;28;20032;-66
2022/05/03 00:50:33;;;;;;;14.43;7.45;;;;;;;;;;10526761;28;20055;-66
2022/05/03 00:56:10;;;;;;;13.20;8.00;;;;;;;;;;10528378;28;20048;-67
2022/05/03 01:01:22;;;;;;;9.85;7.25;;;;;;;;;;10495266;28;20049;-67
2022/05/03 01:06:34;;;;;;;14.10;7.63;;;;;;;;;;10508457;28;20059;-67
2022/05/03 01:11:49;;;;;;;17.58;8.40;;;;;;;;;;10505521;28;20064;-67
2022/05/03 01:16:59;;;;;;;12.70;8.32;;;;;;;;;;10484293;28;20225;-67
2022/05/03 01:22:09;;;;;;;13.38;8.02;;;;;;;;;;10491379;28;20040;-67
2022/05/03 01:27:38;;;;;;;15.52;7.60;;;;;;;;;;10525651;28;20063;-67
2022/05/03 01:32:45;;;;;;;15.43;8.52;;;;;;;;;;10526531;28;20320;-67
2022/05/03 01:38:04;;;;;;;19.65;8.85;;;;;;;;;;10495541;28;20045;-67
2022/05/03 01:43:13;;;;;;;14.55;8.25;;;;;;;;;;10525205;28;20096;-67
2022/05/03 01:54:03;;;;;;;17.08;7.80;;;;;;;;;;10473675;28;20060;-67
2022/05/03 01:59:22;;;;;;;19.35;9.77;;;;;;;;;;10486233;28;20055;-67
2022/05/03 02:04:54;;;;;;;18.27;9.25;;;;;;;;;;10484843;28;20045;-67
2022/05/03 02:10:05;;;;;;;23.98;9.55;;;;;;;;;;10486253;28;20052;-67
2022/05/03 02:15:11;;;;;;;16.58;10.30;;;;;;;;;;10479932;28;20057;-66
2022/05/03 02:20:57;;;;;;;18.05;10.27;;;;;;;;;;10502896;28;20048;-66
2022/05/03 02:26:24;;;;;;;24.83;10.73;;;;;;;;;;10484822;28;20071;-66
2022/05/03 02:31:33;;;;;;;20.50;9.52;;;;;;;;;;10534522;28;20067;-66
2022/05/03 02:36:43;;;;;;;18.30;10.27;;;;;;;;;;10518714;28;20048;-66
2022/05/03 02:41:46;;;;;;;19.80;11.10;;;;;;;;;;10487467;28;20099;-66
2022/05/03 02:47:02;;;;;;;14.75;10.32;;;;;;;;;;10477924;28;20228;-66
2022/05/03 02:52:15;;;;;;;23.00;11.32;;;;;;;;;;10490875;28;20333;-65
2022/05/03 02:57:29;;;;;;;18.88;11.02;;;;;;;;;;10493311;28;20041;-66
2022/05/03 03:02:35;;;;;;;14.75;10.50;;;;;;;;;;10488278;28;20057;-67
2022/05/03 03:07:46;;;;;;;19.70;10.02;;;;;;;;;;10519015;28;20075;-66
2022/05/03 03:12:55;;;;;;;16.00;9.85;;;;;;;;;;10495770;28;20091;-67
2022/05/03 03:17:59;;;;;;;17.02;10.80;;;;;;;;;;10479745;28;20291;-66
2022/05/03 03:23:06;;;;;;;16.83;10.45;;;;;;;;;;10476599;28;20041;-67
2022/05/03 03:28:10;;;;;;;13.27;9.93;;;;;;;;;;10502688;28;20115;-67
2022/05/03 03:33:14;;;;;;;16.65;9.50;;;;;;;;;;10495793;28;20032;-68
2022/05/03 03:38:17;;;;;;;16.27;9.90;;;;;;;;;;10503953;28;20049;-68
2022/05/03 03:43:20;;;;;;;16.10;10.40;;;;;;;;;;10475966;28;20063;-68
2022/05/03 03:48:22;;;;;;;21.27;11.02;;;;;;;;;;10507879;28;20052;-68
2022/05/03 03:53:27;;;;;;;20.30;11.65;;;;;;;;;;10497389;28;20344;-68
2022/05/03 03:58:31;;;;;;;19.98;12.02;;;;;;;;;;10488676;28;20045;-68
2022/05/03 04:03:35;;;;;;;19.75;10.27;;;;;;;;;;10475003;28;20055;-69
2022/05/03 04:08:39;;;;;;;13.75;9.68;;;;;;;;;;10474860;28;20044;-67
2022/05/03 04:13:43;;;;;;;19.30;10.17;;;;;;;;;;10511976;28;20107;-67
2022/05/03 04:18:45;;;;;;;16.85;9.82;;;;;;;;;;10503175;28;20045;-67
2022/05/03 04:23:49;;;;;;;11.32;8.52;;;;;;;;;;10513962;28;20285;-68
2022/05/03 04:28:51;;;;;;;15.38;8.65;;;;;;;;;;10475703;28;20217;-68
2022/05/03 04:33:53;;;;;;;12.55;7.80;;;;;;;;;;10484787;28;20272;-68
2022/05/03 04:38:58;;;;;;;9.63;7.00;;;;;;;;;;10513890;28;20047;-68
2022/05/03 04:44:00;;;;;;;12.82;6.97;;;;;;;;;;10476016;28;20041;-68
2022/05/03 04:49:02;;;;;;;;;;;;;;;;;;10472905;28;20056;-68
2022/05/03 04:54:06;;;;;;;7.03;5.65;;;;;;;;;;10498023;28;19916;-67
2022/05/03 04:59:08;;;;;;;9.52;5.95;;;;;;;;;;10513042;28;20059;-67
2022/05/03 05:04:10;;;;;;;5.45;4.80;;;;;;;;;;10502648;28;20044;-67
2022/05/03 05:09:14;;;;;;;7.38;4.28;;;;;;;;;;10473162;28;20101;-68
2022/05/03 05:14:20;;;;;;;8.02;4.03;;;;;;;;;;10497938;28;20060;-68
2022/05/03 05:19:23;;;;;;;6.25;4.32;;;;;;;;;;10490876;28;20049;-68
2022/05/03 05:24:26;;;;;;;5.53;4.00;;;;;;;;;;10496797;28;20087;-68
2022/05/03 05:29:28;;;;;;;4.50;3.42;;;;;;;;;;10503820;28;20044;-68
2022/05/03 05:34:31;;;;;;;5.00;3.22;;;;;;;;;;10501784;28;20044;-68
2022/05/03 05:39:34;;;;;;;4.38;3.97;;;;;;;;;;10500257;28;20048;-69
2022/05/03 05:44:36;;;;;;;8.55;3.88;;;;;;;;;;10512001;28;20052;-69
2022/05/03 05:49:39;;;;;;;7.97;3.08;;;;;;;;;;10485689;28;20053;-68
2022/05/03 05:54:42;;;;;;;2.50;2.30;;;;;;;;;;10494934;28;20061;-68
2022/05/03 05:59:45;;;;;;;4.25;2.53;;;;;;;;;;10514651;28;20055;-68
2022/05/03 06:04:48;;;;;;;3.53;1.70;;;;;;;;;;10501741;28;20343;-67
2022/05/03 06:09:52;;;;;;;2.60;1.70;;;;;;;;;;10501293;28;20045;-68
2022/05/03 06:14:54;;;;;;;6.60;1.98;;;;;;;;;;10479796;28;20068;-68
2022/05/03 06:19:57;;;;;;;5.72;2.60;;;;;;;;;;10495889;28;20048;-69
2022/05/03 06:25:01;;;;;;;7.30;2.33;;;;;;;;;;10504323;28;20061;-68
2022/05/03 06:30:04;;;;;;;2.58;2.00;;;;;;;;;;10499182;28;20049;-69
2022/05/03 06:35:07;;;;;;;5.40;2.10;;;;;;;;;;10486171;28;20279;-68
2022/05/03 06:40:12;;;;;;;5.15;1.88;;;;;;;;;;10521037;28;20041;-68
2022/05/03 06:45:14;;;;;;;4.28;2.28;;;;;;;;;;10498665;28;20359;-69
2022/05/03 06:50:17;;;;;;;2.80;1.70;;;;;;;;;;10500562;28;20045;-69
2022/05/03 06:55:20;;;;;;;2.40;1.85;;;;;;;;;;10492145;28;20347;-69
2022/05/03 07:00:23;;;;;;;3.30;1.80;;;;;;;;;;10504908;28;20109;-69
2022/05/03 07:05:26;;;;;;;4.10;2.13;;;;;;;;;;10561975;28;20064;-70
2022/05/03 07:10:29;;;;;;;3.05;1.80;;;;;;;;;;10518699;28;20065;-68
2022/05/03 07:15:33;;;;;;;2.88;1.73;;;;;;;;;;10491234;28;20112;-69
2022/05/03 07:25:57;;;;;;;2.47;2.20;;;;;;;;;;10526689;28;19930;-68
2022/05/03 07:31:00;;;;;;;2.85;2.58;;;;;;;;;;10503400;28;20122;-68
2022/05/03 07:36:03;;;;;;;3.15;2.80;;;;;;;;;;10517794;28;20052;-70
2022/05/03 07:41:07;;;;;;;6.72;3.40;;;;;;;;;;10482052;28;20048;-69
2022/05/03 07:46:09;;;;;;;5.63;4.35;;;;;;;;;;10510090;28;20055;-69
2022/05/03 07:51:12;;;;;;;6.88;5.40;;;;;;;;;;10517825;28;20048;-68
2022/05/03 07:56:16;;;;;;;6.82;5.97;;;;;;;;;;10516710;28;20060;-68
2022/05/03 08:01:18;;;;;;;6.80;6.60;;;;;;;;;;10505587;28;20045;-68
2022/05/03 08:06:23;;;;;;;7.95;7.65;;;;;;;;;;10475653;28;20094;-69
2022/05/03 08:11:26;;;;;;;7.95;7.65;;;;;;;;;;10475205;28;20056;-68
2022/05/03 08:16:30;;;;;;;9.30;8.90;;;;;;;;;;10510883;28;20066;-68
2022/05/03 08:21:35;;;;;;;11.77;11.27;;;;;;;;;;10505955;28;20052;-70
2022/05/03 08:26:39;;;;;;;15.38;14.68;;;;;;;;;;10500028;28;20044;-69
2022/05/03 08:31:41;;;;;;;19.75;18.75;;;;;;;;;;10497332;28;20078;-69
2022/05/03 08:42:01;;;;;;;22.35;21.25;;;;;;;;;;10499668;28;20052;-68
2022/05/03 08:42:12;;;;;;;28.45;26.95;;;;;;;;;;10473815;28;20252;-69
2022/05/03 08:47:16;;;;;;;34.05;32.15;;;;;;;;;;10516213;28;20045;-68
2022/05/03 08:52:21;;;;;;;33.25;31.45;;;;;;;;;;10494964;28;20067;-69
2022/05/03 08:57:26;;;;;;;26.60;25.20;;;;;;;;;;10521840;28;20048;-69
2022/05/03 09:02:28;;;;;;;17.60;16.77;;;;;;;;;;10473238;28;20052;-69
2022/05/03 09:07:34;;;;;;;12.73;12.13;;;;;;;;;;10474754;28;20104;-68
2022/05/03 09:12:38;;;;;;;9.18;8.80;;;;;;;;;;10507371;28;20094;-69
2022/05/03 09:17:42;;;;;;;2.85;2.75;;;;;;;;;;10508679;28;20056;-68
2022/05/03 09:28:09;;;;;;;2.60;2.60;;;;;;;;;;10473970;28;20045;-69
2022/05/03 09:33:15;;;;;;;0.80;0.80;;;;;;;;;;10478377;28;20385;-67
2022/05/03 09:38:18;;;;;;;0.20;0.20;;;;;;;;;;10485872;28;20033;-68
2022/05/03 09:43:22;;;;;;;0.45;0.20;;;;;;;;;;10471965;28;20315;-67
2022/05/03 09:48:26;;;;;;;4.13;1.80;;;;;;;;;;10472261;28;20044;-69
2022/05/03 09:53:29;;;;;;;2.65;2.05;;;;;;;;;;10471583;28;20052;-69
2022/05/03 09:58:35;;;;;;;3.35;2.20;;;;;;;;;;10501598;28;20332;-75
2022/05/03 10:03:37;;;;;;;2.88;2.08;;;;;;;;;;10505801;28;20052;-74
2022/05/03 10:08:40;;;;;;;8.38;2.70;;;;;;;;;;10482096;28;20048;-71
2022/05/03 10:13:44;;;;;;;7.78;2.53;;;;;;;;;;10493008;28;20063;-72
2022/05/03 10:24:11;;;;;;;;;;;;;;;;;;10528536;28;20094;-71
2022/05/03 10:29:15;;;;;;;5.88;2.42;;;;;;;;;;10490449;28;19970;-71
2022/05/03 10:34:49;;;;;;;8.88;2.95;;;;;;;;;;10514391;28;20211;-74
2022/05/03 10:39:55;;;;;;;3.65;3.05;;;;;;;;;;10535724;28;20052;-71
2022/05/03 10:45:03;;;;;;;12.48;2.60;;;;;;;;;;10497062;28;20049;-71
2022/05/03 10:50:23;;;;;;;4.40;2.53;;;;;;;;;;10492209;28;20041;-71
2022/05/03 10:55:28;;;;;;;2.67;2.20;;;;;;;;;;10501566;28;20371;-71
2022/05/03 11:01:07;;;;;;;3.17;2.22;;;;;;;;;;10518842;28;20335;-72
2022/05/03 11:06:47;;;;;;;4.70;2.00;;;;;;;;;;10482785;28;20048;-71
2022/05/03 11:12:00;;;;;;;3.95;2.20;;;;;;;;;;10528320;28;20063;-70
2022/05/03 11:17:09;;;;;;;5.65;2.55;;;;;;;;;;10522191;28;20056;-71
2022/05/03 11:22:12;;;;;;;8.38;2.42;;;;;;;;;;10496213;28;20060;-72
2022/05/03 11:27:16;;;;;;;2.75;2.33;;;;;;;;;;10484905;28;20037;-72
2022/05/03 11:32:29;;;;;;;;;;;;;;;;;;10481433;28;20355;-70
2022/05/03 11:37:31;;;;;;;4.50;2.17;;;;;;;;;;10491282;28;19917;-71
2022/05/03 11:42:38;;;;;;;2.97;1.75;;;;;;;;;;10508994;28;20053;-72
2022/05/03 11:47:44;;;;;;;2.50;1.30;;;;;;;;;;10485566;28;20104;-71
2022/05/03 11:58:07;;;;;;;5.50;1.50;;;;;;;;;;10490169;28;20095;-71
2022/05/03 12:03:11;;;;;;;2.40;1.60;;;;;;;;;;10475247;28;20059;-71
2022/05/03 12:08:20;;;;;;;6.20;1.55;;;;;;;;;;10475715;28;20055;-71
2022/05/03 12:13:31;;;;;;;4.28;1.30;;;;;;;;;;10490125;28;20049;-68
2022/05/03 12:18:37;;;;;;;3.13;1.50;;;;;;;;;;10488122;28;20040;-69
2022/05/03 12:23:44;;;;;;;2.40;2.00;;;;;;;;;;10516290;28;20327;-70
2022/05/03 12:28:48;;;;;;;2.30;1.30;;;;;;;;;;10529607;28;20036;-71
2022/05/03 12:33:53;;;;;;;;;;;;;;;;;;10486800;28;20033;-71
2022/05/03 12:38:55;;;;;;;2.58;1.40;;;;;;;;;;10473550;28;19917;-69
2022/05/03 12:44:03;;;;;;;1.42;1.20;;;;;;;;;;10480917;28;20103;-70
2022/05/03 12:49:11;;;;;;;3.08;1.10;;;;;;;;;;10508489;28;20051;-71
2022/05/03 12:54:14;;;;;;;2.35;1.27;;;;;;;;;;10529080;28;20335;-70
2022/05/03 12:59:18;;;;;;;4.85;1.90;;;;;;;;;;10514559;28;20056;-70
2022/05/03 13:04:23;;;;;;;1.73;1.33;;;;;;;;;;10485864;28;20060;-70
2022/05/03 13:09:26;;;;;;;5.35;1.40;;;;;;;;;;10474289;28;20053;-72
2022/05/03 13:14:31;;;;;;;2.17;1.10;;;;;;;;;;10474726;28;20352;-68
2022/05/03 13:19:36;;;;;;;1.95;0.98;;;;;;;;;;10472923;28;20045;-68
2022/05/03 13:24:38;;;;;;;5.00;2.03;;;;;;;;;;10496147;28;20049;-68
2022/05/03 13:29:41;;;;;;;4.88;1.00;;;;;;;;;;10510451;28;20032;-68
2022/05/03 13:34:45;;;;;;;5.00;1.47;;;;;;;;;;10512551;28;20052;-68
2022/05/03 13:45:07;;;;;;;2.88;1.15;;;;;;;;;;10487016;28;20048;-68
2022/05/03 13:50:12;;;;;;;3.80;0.95;;;;;;;;;;10475867;28;20044;-68
2022/05/03 13:55:15;;;;;;;1.95;1.05;;;;;;;;;;10478761;28;20248;-69
2022/05/03 14:00:17;;;;;;;2.28;1.60;;;;;;;;;;10484024;28;20065;-68
2022/05/03 14:05:24;;;;;;;1.52;0.90;;;;;;;;;;10496189;28;20036;-69
2022/05/03 14:10:26;;;;;;;;;;;;;;;;;;10522338;28;20067;-68
2022/05/03 14:15:29;;;;;;;4.10;2.10;;;;;;;;;;10522359;28;19947;-68
2022/05/03 14:20:33;;;;;;;1.77;1.57;;;;;;;;;;10504890;28;20050;-68
2022/05/03 14:25:35;;;;;;;3.83;1.15;;;;;;;;;;10521812;28;20086;-67
2022/05/03 14:30:38;;;;;;;2.58;1.08;;;;;;;;;;10521033;28;20239;-68
2022/05/03 14:35:41;;;;;;;3.33;1.10;;;;;;;;;;10496957;28;20052;-68
2022/05/03 14:40:44;;;;;;;4.20;1.40;;;;;;;;;;10478484;28;20053;-69
2022/05/03 14:45:47;;;;;;;2.38;1.40;;;;;;;;;;10482101;28;20051;-69
2022/05/03 14:50:51;;;;;;;6.05;1.67;;;;;;;;;;10517963;28;20346;-68
2022/05/03 15:06:46;;;;;;;2.33;2.08;;;;;;;;;;10229791;29;20124;-68
2022/05/03 15:11:49;;;;;;;1.85;1.20;;;;;;;;;;10230473;29;20067;-68
2022/05/03 15:16:51;;;;;;;3.47;1.30;;;;;;;;;;10229384;29;20119;-68
2022/05/03 15:21:55;;;;;;;5.75;1.80;;;;;;;;;;10230256;29;20063;-70
2022/05/03 15:26:58;;;;;;;4.13;1.42;;;;;;;;;;10229396;29;20079;-68
2022/05/03 15:32:26;;;;;;;1.95;1.10;;;;;;;;;;10231090;29;20052;-69
2022/05/03 15:37:31;;;;;;;6.88;1.70;;;;;;;;;;10344932;28;20050;-69
2022/05/03 15:42:34;;;;;;;8.63;1.50;;;;;;;;;;10425509;28;20061;-70
2022/05/03 15:47:37;;;;;;;2.05;1.48;;;;;;;;;;10516762;28;20114;-70
2022/05/03 15:52:44;;;;;;;3.03;1.50;;;;;;;;;;10517868;28;20044;-67
2022/05/03 15:57:47;;;;;;;2.45;1.45;;;;;;;;;;10521525;28;20044;-70
2022/05/03 16:02:50;;;;;;;5.75;1.83;;;;;;;;;;10503069;28;20037;-71
2022/05/03 16:07:54;;;;;;;3.65;1.70;;;;;;;;;;10484872;28;20052;-71
2022/05/03 16:12:57;;;;;;;3.07;1.67;;;;;;;;;;10492027;28;20064;-68
2022/05/03 16:17:59;;;;;;;7.70;2.65;;;;;;;;;;10514202;28;20056;-71
2022/05/03 16:23:03;;;;;;;6.30;1.40;;;;;;;;;;10516778;28;20343;-69
2022/05/03 16:28:05;;;;;;;5.53;2.40;;;;;;;;;;10515999;28;20123;-70
2022/05/03 16:33:08;;;;;;;1.70;1.60;;;;;;;;;;10475989;28;20342;-69
2022/05/03 16:43:43;;;;;;;3.58;1.60;;;;;;;;;;10389463;28;20345;-68
2022/05/03 16:48:46;;;;;;;4.53;2.00;;;;;;;;;;10389008;28;20096;-69
2022/05/03 16:53:50;;;;;;;4.22;2.20;;;;;;;;;;10384514;28;20253;-69
2022/05/03 16:58:52;;;;;;;3.63;2.40;;;;;;;;;;10388734;28;20054;-69
2022/05/03 17:03:55;;;;;;;6.32;3.00;;;;;;;;;;10388946;28;20053;-68
2022/05/03 17:09:00;;;;;;;5.00;2.63;;;;;;;;;;10387867;28;20062;-70
2022/05/03 17:14:02;;;;;;;14.70;3.80;;;;;;;;;;10382345;28;20408;-69
2022/05/03 17:19:05;;;;;;;7.80;2.63;;;;;;;;;;10509047;28;20040;-70
2022/05/03 17:24:10;;;;;;;6.53;3.10;;;;;;;;;;10513115;28;20041;-68
2022/05/03 17:29:12;;;;;;;7.38;3.42;;;;;;;;;;10513492;28;20051;-68
2022/05/03 17:34:15;;;;;;;10.32;3.17;;;;;;;;;;10514466;28;20074;-68
2022/05/03 17:39:19;;;;;;;6.35;3.47;;;;;;;;;;10489171;28;20227;-69
2022/05/03 17:44:22;;;;;;;8.10;4.27;;;;;;;;;;10515066;28;20240;-67
2022/05/03 17:49:34;;;;;;;5.95;4.20;;;;;;;;;;10480557;28;20348;-68
2022/05/03 17:54:38;;;;;;;15.32;5.70;;;;;;;;;;10515294;28;20059;-68
2022/05/03 17:59:41;;;;;;;6.78;4.50;;;;;;;;;;10502010;28;21066;-69
2022/05/03 18:04:43;;;;;;;11.00;4.18;;;;;;;;;;10521970;28;20059;-69
2022/05/03 18:09:47;;;;;;;12.65;4.90;;;;;;;;;;10522111;28;20040;-69
2022/05/03 18:14:55;;;;;;;10.63;4.95;;;;;;;;;;10501338;28;20060;-68
2022/05/03 18:19:57;;;;;;;6.20;4.30;;;;;;;;;;10498254;28;20041;-67
2022/05/03 18:25:01;;;;;;;7.57;4.47;;;;;;;;;;10479767;28;20045;-67
2022/05/03 18:30:04;;;;;;;19.90;4.93;;;;;;;;;;10478813;28;20144;-66
2022/05/03 18:35:07;;;;;;;24.95;4.95;;;;;;;;;;10491029;28;20052;-68
2022/05/03 18:40:13;;;;;;;14.57;4.97;;;;;;;;;;10514534;28;20044;-67
2022/05/03 18:45:15;;;;;;;13.57;5.10;;;;;;;;;;10506384;28;20347;-67
2022/05/03 18:50:17;;;;;;;22.92;5.95;;;;;;;;;;10506574;28;20086;-67
2022/05/03 19:00:42;;;;;;;17.33;9.52;;;;;;;;;;10527189;28;20040;-69
2022/05/03 19:05:46;;;;;;;19.83;9.68;;;;;;;;;;10503673;28;20072;-69
2022/05/03 19:10:50;;;;;;;12.73;5.50;;;;;;;;;;10478231;28;20040;-68
2022/05/03 19:15:53;;;;;;;13.52;5.45;;;;;;;;;;10512693;28;20040;-68
2022/05/03 19:20:55;;;;;;;16.25;6.53;;;;;;;;;;10497943;28;20059;-68
2022/05/03 19:31:24;;;;;;;8.23;6.15;;;;;;;;;;10391092;28;20324;-68
2022/05/03 19:36:27;;;;;;;10.63;6.43;;;;;;;;;;10390876;28;20065;-67
2022/05/03 19:41:31;;;;;;;8.35;6.28;;;;;;;;;;10390413;28;20065;-68
2022/05/03 19:46:34;;;;;;;13.38;6.78;;;;;;;;;;10406887;28;20053;-68
2022/05/03 19:51:37;;;;;;;10.55;6.90;;;;;;;;;;10407021;28;20061;-68
2022/05/03 19:56:41;;;;;;;11.98;8.20;;;;;;;;;;10411610;28;20053;-68
2022/05/03 20:01:43;;;;;;;13.27;8.10;;;;;;;;;;10430308;28;20061;-67
2022/05/03 20:06:46;;;;;;;11.10;6.85;;;;;;;;;;10453481;28;20275;-67
2022/05/03 20:11:50;;;;;;;14.63;6.63;;;;;;;;;;10475118;28;20057;-68
2022/05/03 20:16:52;;;;;;;11.75;7.28;;;;;;;;;;10487284;28;20213;-68
2022/05/03 20:21:54;;;;;;;14.20;6.97;;;;;;;;;;10495062;28;20048;-67
2022/05/03 20:26:58;;;;;;;8.35;6.07;;;;;;;;;;10508872;28;20056;-68
2022/05/03 20:32:01;;;;;;;16.25;5.97;;;;;;;;;;10484613;28;20057;-67
2022/05/03 20:37:03;;;;;;;9.93;6.53;;;;;;;;;;10477505;28;20351;-67
2022/05/03 20:42:08;;;;;;;10.60;7.35;;;;;;;;;;10517376;28;20071;-68
2022/05/03 20:52:31;;;;;;;14.50;8.77;;;;;;;;;;10490241;28;20040;-69
2022/05/03 20:57:35;;;;;;;7.63;6.13;;;;;;;;;;10474971;28;20041;-67
2022/05/03 21:02:38;;;;;;;8.50;6.68;;;;;;;;;;10485777;28;20052;-69
2022/05/03 21:07:41;;;;;;;9.98;6.85;;;;;;;;;;10492701;28;20140;-68
2022/05/03 21:12:45;;;;;;;16.35;9.57;;;;;;;;;;10473986;28;20060;-67
2022/05/03 21:17:47;;;;;;;9.23;7.00;;;;;;;;;;10484581;28;20045;-68
2022/05/03 21:22:49;;;;;;;10.27;7.07;;;;;;;;;;10490187;28;20287;-66
2022/05/03 21:27:53;;;;;;;7.90;6.82;;;;;;;;;;10473187;28;20253;-67
2022/05/03 21:32:57;;;;;;;8.35;6.85;;;;;;;;;;10484729;28;20048;-67
2022/05/03 21:38:00;;;;;;;11.30;7.50;;;;;;;;;;10500985;28;20132;-67
2022/05/03 21:43:03;;;;;;;13.77;7.80;;;;;;;;;;10487820;28;20052;-68
2022/05/03 21:48:06;;;;;;;13.55;7.32;;;;;;;;;;10473993;28;20492;-68
2022/05/03 21:53:08;;;;;;;17.05;7.38;;;;;;;;;;10514058;28;20044;-66
2022/05/03 21:58:13;;;;;;;11.32;8.35;;;;;;;;;;10482501;28;20359;-67
2022/05/03 22:03:16;;;;;;;13.30;8.15;;;;;;;;;;10497998;28;20098;-67
2022/05/03 22:08:19;;;;;;;10.43;8.43;;;;;;;;;;10484255;28;20056;-69
2022/05/03 22:13:23;;;;;;;12.25;9.32;;;;;;;;;;10473744;28;20049;-68
2022/05/03 22:18:26;;;;;;;12.23;8.80;;;;;;;;;;10497138;28;20221;-67
2022/05/03 22:23:28;;;;;;;12.40;9.40;;;;;;;;;;10489373;28;20037;-66
2022/05/03 22:28:31;;;;;;;14.55;9.52;;;;;;;;;;10500000;28;20049;-68
2022/05/03 22:33:34;;;;;;;10.82;9.05;;;;;;;;;;10520893;28;20052;-68
2022/05/03 22:38:36;;;;;;;15.98;10.10;;;;;;;;;;10493016;28;20041;-67
2022/05/03 22:43:40;;;;;;;16.02;9.63;;;;;;;;;;10481187;28;20228;-69
2022/05/03 22:48:42;;;;;;;14.40;10.43;;;;;;;;;;10479596;28;20060;-67
2022/05/03 22:53:44;;;;;;;14.13;9.95;;;;;;;;;;10482733;28;20076;-67
2022/05/03 22:58:48;;;;;;;16.73;10.35;;;;;;;;;;10519435;28;20040;-67
2022/05/03 23:03:50;;;;;;;14.32;10.50;;;;;;;;;;10484552;28;20067;-67
2022/05/03 23:08:53;;;;;;;15.55;10.68;;;;;;;;;;10478642;28;20232;-67
2022/05/03 23:13:57;;;;;;;16.08;10.18;;;;;;;;;;10477974;28;20061;-66
2022/05/03 23:18:59;;;;;;;19.10;11.10;;;;;;;;;;10515495;28;20048;-66
2022/05/03 23:24:01;;;;;;;18.15;11.35;;;;;;;;;;10519586;28;20090;-66
2022/05/03 23:29:05;;;;;;;16.50;11.05;;;;;;;;;;10517854;28;20040;-68
2022/05/03 23:39:29;;;;;;;18.83;11.80;;;;;;;;;;10489895;28;20151;-66
2022/05/03 23:44:32;;;;;;;17.73;11.38;;;;;;;;;;10486673;28;20044;-67
2022/05/03 23:49:35;;;;;;;15.05;10.55;;;;;;;;;;10476382;28;20091;-67
2022/05/03 23:54:37;;;;;;;15.07;10.85;;;;;;;;;;10476344;28;20263;-67
2022/05/03 23:59:41;;;;;;;14.93;10.65;;;;;;;;;;10478252;28;20121;-67
